»·PEaware :: AAL1925 KPHX-KPSP

AAL1925 :: KPHX-KPSP

FLIGHT INFORMATION

Flight Status: Arrived
Operator:
American Airlines
More flights by this operator :: More flights under this callsign
Pilot: Jac C. (16067)
Aircraft: AIRBUS A319
(A319)
More flights by this aircraft type
Origin: KPHX Phoenix Sky Harbor Intl
United States
Destination: KPSP Palm Springs Intl
United States
More flights between these airports :: More routes between these airports
Route: KEENS2 HRRBR CURIV J212 DECAS CLOWD1
File this flight plan on PilotEdge
Remarks: PBN / A1B1C1D1O1S1 DOF / 181128 REG / N319SB EET / KZLA0018 OPR / AAL PER / C RMK / TCAS SIMBRIEF
Altitude:
(Current/Filed)
38,000ft
Speed:
(Current/Filed)
452kts
Departed: 28-Nov-18 04:30 PM
Arrived: 28-Nov-18 05:16 PM
Distance/Time
Traveled:
226nm/0:46
Distance/Time
To Go:
Arrived

Flight Plot

Page will automatically refresh every two minutes.

Flight plan parsing failed; only flown route is shown


Map Options




Map Legend


Flown Route
Filed Route
Departure Airport
Arrival Airport
Navaid (VOR, NDB)
Fix

Horizontal Profiles

Position Reports

Time Latitude Longitude Heading Altitude Ground
Speed
28-Nov-18 15:31 33.437099 -111.996282 270 1118ft 0kts
28-Nov-18 15:32 33.437099 -111.996282 270 1118ft 0kts
28-Nov-18 15:33 33.437099 -111.996282 270 1118ft 0kts
28-Nov-18 15:34 33.437099 -111.996282 270 1118ft 0kts
28-Nov-18 15:35 33.437099 -111.996282 270 1118ft 0kts
28-Nov-18 15:36 33.437099 -111.996282 270 1118ft 0kts
28-Nov-18 15:37 33.437099 -111.996282 270 1118ft 0kts
28-Nov-18 15:38 33.437099 -111.996282 270 1118ft 0kts
28-Nov-18 15:39 33.437099 -111.996282 270 1118ft 0kts
28-Nov-18 15:40 33.437099 -111.996282 270 1118ft 0kts
28-Nov-18 15:41 33.437099 -111.996282 270 1118ft 0kts
28-Nov-18 15:42 33.437099 -111.996282 270 1118ft 0kts
28-Nov-18 15:43 33.437099 -111.996282 270 1118ft 0kts
28-Nov-18 15:44 33.437099 -111.996282 270 1118ft 0kts
28-Nov-18 15:45 33.437099 -111.996282 270 1118ft 0kts
28-Nov-18 15:46 33.437099 -111.996282 270 1118ft 0kts
28-Nov-18 15:47 33.437099 -111.996282 270 1118ft 0kts
28-Nov-18 15:48 33.437099 -111.996282 270 1118ft 0kts
28-Nov-18 15:49 33.437099 -111.996282 270 1118ft 0kts
28-Nov-18 15:50 33.437099 -111.996281 270 1118ft 0kts
28-Nov-18 15:51 33.437099 -111.996281 270 1118ft 0kts
28-Nov-18 15:52 33.437099 -111.996281 270 1118ft 0kts
28-Nov-18 15:53 33.437099 -111.996281 270 1118ft 0kts
28-Nov-18 15:54 33.437099 -111.996281 270 1118ft 0kts
28-Nov-18 15:55 33.437099 -111.996281 270 1118ft 0kts
28-Nov-18 15:56 33.437099 -111.996281 270 1118ft 0kts
28-Nov-18 15:57 33.437099 -111.996281 270 1118ft 0kts
28-Nov-18 15:58 33.437099 -111.996281 270 1118ft 0kts
28-Nov-18 15:59 33.437099 -111.996281 270 1118ft 0kts
28-Nov-18 16:00 33.437099 -111.996281 270 1118ft 0kts
28-Nov-18 16:01 33.437099 -111.996281 270 1118ft 0kts
28-Nov-18 16:02 33.437099 -111.996281 270 1118ft 0kts
28-Nov-18 16:03 33.437099 -111.996281 270 1118ft 0kts
28-Nov-18 16:04 33.437099 -111.996281 270 1118ft 0kts
28-Nov-18 16:05 33.437099 -111.996281 270 1118ft 0kts
28-Nov-18 16:06 33.437099 -111.996281 270 1118ft 0kts
28-Nov-18 16:07 33.437099 -111.996281 270 1118ft 0kts
28-Nov-18 16:08 33.437099 -111.996281 270 1118ft 0kts
28-Nov-18 16:09 33.437099 -111.996281 270 1118ft 0kts
28-Nov-18 16:10 33.437099 -111.996281 270 1118ft 0kts
28-Nov-18 16:11 33.437099 -111.996281 270 1118ft 0kts
28-Nov-18 16:12 33.437099 -111.996281 270 1118ft 0kts
28-Nov-18 16:13 33.437099 -111.996281 270 1118ft 0kts
28-Nov-18 16:14 33.437099 -111.996281 270 1118ft 0kts
28-Nov-18 16:15 33.437099 -111.996281 270 1118ft 0kts
28-Nov-18 16:16 33.437099 -111.996281 270 1118ft 0kts
28-Nov-18 16:17 33.437099 -111.996281 270 1118ft 0kts
28-Nov-18 16:18 33.437099 -111.996281 270 1118ft 0kts
28-Nov-18 16:19 33.437099 -111.996281 270 1118ft 0kts
28-Nov-18 16:20 33.437099 -111.996281 270 1118ft 0kts
28-Nov-18 16:21 33.437099 -111.996281 270 1118ft 0kts
28-Nov-18 16:22 33.437100 -111.996005 269 1118ft 2kts
28-Nov-18 16:23 33.436852 -111.995548 3 1118ft 0kts
28-Nov-18 16:24 33.437344 -111.995558 0 1118ft 0kts
28-Nov-18 16:25 33.437344 -111.995558 0 1118ft 0kts
28-Nov-18 16:26 33.437344 -111.995558 0 1118ft 0kts
28-Nov-18 16:27 33.437344 -111.995558 0 1118ft 0kts
28-Nov-18 16:28 33.437344 -111.995558 0 1118ft 0kts
28-Nov-18 16:29 33.438073 -111.995564 359 1118ft 9kts
28-Nov-18 16:30 33.439728 -111.994076 89 1118ft 11kts
28-Nov-18 16:31 33.439825 -111.991153 31 1118ft 0kts
28-Nov-18 16:32 33.440397 -111.991015 350 1118ft 8kts
28-Nov-18 16:33 33.440846 -112.007132 269 1118ft 152kts
28-Nov-18 16:34 33.431586 -112.062763 246 3490ft 185kts
28-Nov-18 16:35 33.410156 -112.132350 247 5525ft 267kts
28-Nov-18 16:36 33.393691 -112.221033 282 9323ft 287kts
28-Nov-18 16:37 33.408555 -112.318621 278 12091ft 322kts
28-Nov-18 16:38 33.424229 -112.424977 278 15150ft 333kts
28-Nov-18 16:39 33.440733 -112.537391 278 16991ft 364kts
28-Nov-18 16:40 33.450475 -112.649153 270 18943ft 376kts
28-Nov-18 16:41 33.452751 -112.769383 272 21046ft 383kts
28-Nov-18 16:42 33.470744 -112.895797 280 22762ft 397kts
28-Nov-18 16:43 33.495296 -113.028365 281 24003ft 413kts
28-Nov-18 16:44 33.519489 -113.159238 281 26279ft 399kts
28-Nov-18 16:45 33.539113 -113.265838 281 27945ft 390kts
28-Nov-18 16:46 33.565698 -113.410886 282 29992ft 379kts
28-Nov-18 16:47 33.587939 -113.532685 283 31479ft 371kts
28-Nov-18 16:48 33.609924 -113.650185 283 32753ft 364kts
28-Nov-18 16:49 33.627864 -113.746985 283 33795ft 359kts
28-Nov-18 16:50 33.649353 -113.863241 284 34823ft 355kts
28-Nov-18 16:51 33.673874 -113.996972 283 35756ft 353kts
28-Nov-18 16:52 33.691320 -114.092406 283 36288ft 352kts
28-Nov-18 16:53 33.715540 -114.225516 283 36859ft 351kts
28-Nov-18 16:54 33.732749 -114.320670 283 37128ft 346kts
28-Nov-18 16:55 33.755946 -114.449580 283 33877ft 344kts
28-Nov-18 16:56 33.771454 -114.544142 279 30887ft 356kts
28-Nov-18 16:57 33.779221 -114.657944 275 29861ft 344kts
28-Nov-18 16:58 33.785544 -114.765308 275 29229ft 342kts
28-Nov-18 16:59 33.791919 -114.876819 274 28447ft 345kts
28-Nov-18 17:00 33.798466 -114.993112 274 27189ft 365kts
28-Nov-18 17:01 33.805362 -115.118522 274 24202ft 388kts
28-Nov-18 17:02 33.811703 -115.236041 273 20993ft 374kts
28-Nov-18 17:03 33.818086 -115.355874 273 18405ft 355kts
28-Nov-18 17:04 33.829714 -115.470654 283 16146ft 345kts
28-Nov-18 17:05 33.862063 -115.576220 289 14373ft 328kts
28-Nov-18 17:06 33.890906 -115.666022 288 12802ft 317kts
28-Nov-18 17:07 33.912855 -115.754102 273 11312ft 299kts
28-Nov-18 17:08 33.908226 -115.849402 267 9988ft 285kts
28-Nov-18 17:09 33.898615 -115.934934 245 9909ft 266kts
28-Nov-18 17:10 33.858876 -116.011626 241 8355ft 274kts
28-Nov-18 17:11 33.820144 -116.085703 241 6988ft 269kts
28-Nov-18 17:12 33.785551 -116.151745 241 6656ft 224kts
28-Nov-18 17:13 33.753287 -116.214704 245 4964ft 223kts
28-Nov-18 17:14 33.740386 -116.285088 264 3681ft 202kts
28-Nov-18 17:15 33.743897 -116.348624 284 2921ft 192kts
28-Nov-18 17:16 33.759678 -116.409806 291 2763ft 191kts
28-Nov-18 17:17 33.780256 -116.460825 310 1799ft 153kts
28-Nov-18 17:18 33.812219 -116.492167 322 686ft 146kts
28-Nov-18 17:19 33.836093 -116.513355 323 434ft 33kts
28-Nov-18 17:20 33.833592 -116.513268 146 434ft 13kts
28-Nov-18 17:21 33.829393 -116.509565 143 434ft 20kts
28-Nov-18 17:22 33.824858 -116.505422 143 434ft 16kts
28-Nov-18 17:23 33.822048 -116.505852 242 434ft 6kts
28-Nov-18 17:24 33.822549 -116.506632 1 434ft 3kts

Navigation Log

Ident Type
Flight plan parsing failed, navigation log unavailable